Langdon, ND

9:07 PM CDT on March 24, 2017 (GMT -0500)
Langdon

Weather History for KD55 - April, 2014

Change the Weather History Date:

Monday, April 21, 2014

  Actual Average (KDVL) Record (KDVL)
Temperature  
Mean Temperature 42 °F -  
Max Temperature 53 °F 53 °F 92 °F (1980)
Min Temperature 32 °F 31 °F 20 °F (1951)
Degree Days  
Heating Degree Days 22    
Moisture  
Dew Point 32 °F    
Average Humidity 70    
Maximum Humidity 100    
Minimum Humidity 44    
Precipitation  
Precipitation 0.00 in - - ()
Sea Level Pressure  
Sea Level Pressure 30.06 in    
Wind  
Wind Speed 13 mph (NW)    
Max Wind Speed 22 mph    
Max Gust Speed 31 mph    
Visibility 10 miles    
Events      
Averages and records for this station are not official NWS values.
T = Trace of Precipitation, MM = Missing Value Source: NWS Daily Summary

Daily Weather History Graph

Daily Weather History Graph

Search for Another Location

Airport or City:

Trip Planner

Search our weather history database for the weather conditions in past years. The results will help you decide how hot, cold, wet, or windy it might be!

Date:

Astronomy

Apr. 21, 2014 Rise Set
Actual Time 6:31 AM CDT 8:34 PM CDT
Civil Twilight 5:57 AM CDT 9:08 PM CDT
Nautical Twilight 5:15 AM CDT 9:50 PM CDT
Astronomical Twilight 4:28 AM CDT 10:37 PM CDT
Moon 2:12 AM CDT (4/21) 11:53 AM CDT (4/21)
Length of Visible Light 15h 10m
Length of Day
14h 02m
Waning Gibbous, 57% of the Moon is Illuminated
Apr 21
Waning Gibbous
Apr 22
Last Quarter
Apr 29
New
May 6
First Quarter
May 14
Full

Hourly Weather History & Observations

Time (CDT) Temp. Windchill Dew Point Humidity Pressure Visibility Wind Dir Wind Speed Gust Speed Precip Events Conditions
12:15 AM 37.4 °F 31.4 °F 32.0 °F 81% 29.88 in 10.0 mi West 8.1 mph - N/A   Clear
12:35 AM 37.4 °F 30.3 °F 32.0 °F 81% 29.88 in 10.0 mi WSW 10.4 mph - N/A   Clear
12:55 AM 35.6 °F 29.2 °F 32.0 °F 87% 29.87 in 10.0 mi WSW 8.1 mph - N/A   Clear
1:15 AM 35.6 °F 27.1 °F 32.0 °F 87% 29.86 in 10.0 mi WSW 12.7 mph - N/A   Clear
1:35 AM 35.6 °F 26.6 °F 32.0 °F 87% 29.86 in 10.0 mi WSW 13.8 mph - N/A   Clear
1:55 AM 37.4 °F 28.9 °F 32.0 °F 81% 29.86 in 10.0 mi West 13.8 mph - N/A   Clear
2:15 AM 41.0 °F 33.9 °F 33.8 °F 76% 29.87 in 10.0 mi West 12.7 mph - N/A   Clear
2:35 AM 39.2 °F 31.2 °F 32.0 °F 75% 29.88 in 10.0 mi NW 13.8 mph - N/A   Partly Cloudy
2:55 AM 35.6 °F 26.6 °F 32.0 °F 87% 29.90 in 9.0 mi NW 13.8 mph - N/A   Mostly Cloudy
3:15 AM 35.6 °F 27.5 °F 32.0 °F 87% 29.91 in 7.0 mi NNW 11.5 mph - N/A   Mostly Cloudy
3:35 AM 33.8 °F 23.5 °F 32.0 °F 93% 29.92 in 10.0 mi NNW 16.1 mph - N/A   Overcast
3:55 AM 33.8 °F 22.2 °F 32.0 °F 93% 29.94 in 10.0 mi NNW 20.7 mph 26.5 mph N/A   Overcast
4:15 AM 35.6 °F 25.9 °F 32.0 °F 87% 29.95 in 10.0 mi NNW 16.1 mph 21.9 mph N/A   Overcast
4:35 AM 35.6 °F 25.5 °F 32.0 °F 87% 29.96 in 10.0 mi NNW 17.3 mph 25.3 mph N/A   Overcast
4:55 AM 35.6 °F 25.9 °F 32.0 °F 87% 29.97 in 10.0 mi NNW 16.1 mph 21.9 mph N/A   Overcast
5:15 AM 35.6 °F 25.5 °F 32.0 °F 87% 29.98 in 10.0 mi NNW 17.3 mph 24.2 mph N/A   Overcast
5:35 AM 35.6 °F 25.5 °F 32.0 °F 87% 29.99 in 8.0 mi NNW 17.3 mph 24.2 mph N/A   Overcast
5:55 AM 33.8 °F 23.2 °F 32.0 °F 93% 30.00 in 8.0 mi North 17.3 mph - N/A   Overcast
6:15 AM 33.8 °F 24.3 °F 32.0 °F 93% 30.01 in 10.0 mi NNW 13.8 mph - N/A   Overcast
6:35 AM 33.8 °F 23.9 °F 32.0 °F 93% 30.02 in 10.0 mi NNW 15.0 mph - N/A   Overcast
6:55 AM 32.0 °F 20.1 °F 32.0 °F 100% 30.03 in 3.0 mi North 19.6 mph 25.3 mph N/A   Overcast
7:15 AM 32.0 °F 20.5 °F 32.0 °F 100% 30.04 in 2.0 mi NNW 18.4 mph - N/A   Overcast
7:35 AM 32.0 °F 20.5 °F 32.0 °F 100% 30.06 in 5.0 mi NNW 18.4 mph - N/A   Overcast
7:55 AM 33.8 °F 23.2 °F 32.0 °F 93% 30.08 in 10.0 mi NNW 17.3 mph 21.9 mph N/A   Overcast
8:15 AM 33.8 °F 23.5 °F 32.0 °F 93% 30.10 in 10.0 mi NW 16.1 mph - N/A   Overcast
8:35 AM 33.8 °F 24.3 °F 32.0 °F 93% 30.12 in 10.0 mi NNW 13.8 mph - N/A   Overcast
8:55 AM 35.6 °F 26.2 °F 32.0 °F 87% 30.12 in 10.0 mi NNW 15.0 mph - N/A   Overcast
9:15 AM 35.6 °F 25.9 °F 32.0 °F 87% 30.12 in 10.0 mi NNW 16.1 mph - N/A   Overcast
9:35 AM 37.4 °F 28.5 °F 32.0 °F 81% 30.12 in 10.0 mi NW 15.0 mph 20.7 mph N/A   Overcast
9:55 AM 39.2 °F 30.5 °F 32.0 °F 75% 30.11 in 10.0 mi NW 16.1 mph 20.7 mph N/A   Mostly Cloudy
10:15 AM 39.2 °F 30.5 °F 32.0 °F 75% 30.12 in 10.0 mi NW 16.1 mph - N/A   Mostly Cloudy
10:35 AM 41.0 °F 33.5 °F 30.2 °F 65% 30.12 in 10.0 mi North 13.8 mph 20.7 mph N/A   Mostly Cloudy
10:55 AM 44.6 °F 36.9 °F 32.0 °F 61% 30.13 in 10.0 mi NNW 18.4 mph 24.2 mph N/A   Mostly Cloudy
11:15 AM 44.6 °F 36.6 °F 30.2 °F 57% 30.13 in 10.0 mi NNW 19.6 mph 25.3 mph N/A   Scattered Clouds
11:35 AM 46.4 °F 39.2 °F 30.2 °F 53% 30.13 in 10.0 mi NNW 18.4 mph 24.2 mph N/A   Scattered Clouds
11:55 AM 46.4 °F 38.7 °F 30.2 °F 53% 30.14 in 10.0 mi NNW 20.7 mph 26.5 mph N/A   Mostly Cloudy
12:15 PM 46.4 °F 38.7 °F 30.2 °F 53% 30.14 in 10.0 mi NW 20.7 mph 27.6 mph N/A   Mostly Cloudy
12:35 PM 48.2 °F - 32.0 °F 54% 30.13 in 10.0 mi NNW 18.4 mph 27.6 mph N/A   Partly Cloudy
12:55 PM 48.2 °F - 32.0 °F 54% 30.13 in 10.0 mi NW 18.4 mph 24.2 mph N/A   Clear
1:15 PM 50.0 °F - 32.0 °F 50% 30.13 in 10.0 mi NNW 15.0 mph 21.9 mph N/A   Clear
1:35 PM 50.0 °F - 32.0 °F 50% 30.12 in 10.0 mi NNW 19.6 mph 25.3 mph N/A   Clear
1:55 PM 51.8 °F - 32.0 °F 47% 30.12 in 10.0 mi NNW 21.9 mph 28.8 mph N/A   Partly Cloudy
2:15 PM 53.6 °F - 32.0 °F 44% 30.12 in 10.0 mi NW 19.6 mph 25.3 mph N/A   Scattered Clouds
2:35 PM 53.6 °F - 32.0 °F 44% 30.12 in 10.0 mi NNW 18.4 mph 26.5 mph N/A   Scattered Clouds
2:55 PM 53.6 °F - 32.0 °F 44% 30.12 in 10.0 mi NNW 20.7 mph 25.3 mph N/A   Mostly Cloudy
3:15 PM 53.6 °F - 32.0 °F 44% 30.12 in 10.0 mi NW 16.1 mph 26.5 mph N/A   Mostly Cloudy
3:35 PM 53.6 °F - 32.0 °F 44% 30.12 in 10.0 mi NW 17.3 mph 27.6 mph N/A   Mostly Cloudy
3:55 PM 53.6 °F - 32.0 °F 44% 30.12 in 10.0 mi NNW 19.6 mph - N/A   Mostly Cloudy
4:15 PM 51.8 °F - 32.0 °F 47% 30.12 in 10.0 mi NW 20.7 mph 31.1 mph N/A   Overcast
4:35 PM 53.6 °F - 32.0 °F 44% 30.11 in 10.0 mi NW 19.6 mph 27.6 mph N/A   Overcast
4:55 PM 53.6 °F - 32.0 °F 44% 30.11 in 10.0 mi NW 17.3 mph 27.6 mph N/A   Overcast
5:15 PM 53.6 °F - 32.0 °F 44% 30.11 in 10.0 mi NNW 21.9 mph 26.5 mph N/A   Overcast
5:35 PM 51.8 °F - 32.0 °F 47% 30.12 in 10.0 mi NNW 15.0 mph - N/A   Overcast
5:55 PM 50.0 °F - 32.0 °F 50% 30.12 in 10.0 mi NW 13.8 mph - N/A   Overcast
6:15 PM 50.0 °F - 32.0 °F 50% 30.12 in 10.0 mi NNW 15.0 mph 21.9 mph N/A   Mostly Cloudy
6:35 PM 50.0 °F - 32.0 °F 50% 30.12 in 10.0 mi NNW 13.8 mph - N/A   Overcast
6:55 PM 50.0 °F - 32.0 °F 50% 30.12 in 10.0 mi NNW 11.5 mph - N/A   Mostly Cloudy
7:15 PM 50.0 °F - 32.0 °F 50% 30.12 in 10.0 mi NNW 16.1 mph - N/A   Overcast
7:35 PM 50.0 °F - 32.0 °F 50% 30.11 in 10.0 mi NNW 12.7 mph - N/A   Overcast
7:55 PM 50.0 °F - 32.0 °F 50% 30.11 in 10.0 mi NNW 11.5 mph - N/A   Overcast
8:15 PM 48.2 °F - 33.8 °F 58% 30.11 in 10.0 mi NNW 8.1 mph - N/A   Mostly Cloudy
8:35 PM 46.4 °F 43.5 °F 32.0 °F 57% 30.11 in 10.0 mi NNW 5.8 mph - N/A   Partly Cloudy
8:55 PM 44.6 °F 41.4 °F 32.0 °F 61% 30.11 in 10.0 mi NNW 5.8 mph - N/A   Clear
9:15 PM 41.0 °F - 32.0 °F 70% 30.11 in 10.0 mi Calm Calm - N/A   Clear
9:35 PM 37.4 °F - 30.2 °F 75% 30.11 in 10.0 mi Calm Calm - N/A   Clear
9:55 PM 37.4 °F 34.9 °F 32.0 °F 81% 30.11 in 10.0 mi WNW 3.5 mph - N/A   Clear
10:15 PM 35.6 °F - 28.4 °F 75% 30.12 in 10.0 mi Calm Calm - N/A   Clear
10:35 PM 35.6 °F 32.8 °F 28.4 °F 75% 30.12 in 10.0 mi West 3.5 mph - N/A   Clear
10:55 PM 32.0 °F - 28.4 °F 87% 30.12 in 10.0 mi Calm Calm - N/A   Clear
11:15 PM 32.0 °F - 28.4 °F 87% 30.11 in 10.0 mi Calm Calm - N/A   Clear
11:35 PM 32.0 °F - 28.4 °F 87% 30.10 in 10.0 mi Calm Calm - N/A   Clear
11:55 PM 32.0 °F - 26.6 °F 80% 30.10 in 10.0 mi Calm Calm - N/A   Clear